createdAt,value
2022-08-25T12:46:38.482Z,3.35
2022-08-25T12:48:57.132Z,3.00
2022-08-25T12:51:02.633Z,2.95
2022-08-25T12:53:12.508Z,2.72
2022-08-25T12:55:15.469Z,2.88
2022-08-25T12:57:35.113Z,2.97
2022-08-25T12:59:43.680Z,2.97
2022-08-25T13:02:09.057Z,3.38
2022-08-25T13:05:02.685Z,2.53
2022-08-25T13:07:25.578Z,2.55
2022-08-25T13:10:01.844Z,2.75
2022-08-25T13:12:22.999Z,2.40
2022-08-25T13:14:37.695Z,2.80
2022-08-25T13:16:40.896Z,2.90
2022-08-25T13:18:44.893Z,2.80
2022-08-25T13:21:02.776Z,3.03
2022-08-25T13:23:05.438Z,3.03
2022-08-25T13:25:15.538Z,2.72
2022-08-25T13:27:25.055Z,2.80
2022-08-25T13:29:29.887Z,2.95
2022-08-25T13:31:53.858Z,3.95
2022-08-25T13:34:02.225Z,2.90
2022-08-25T13:36:23.033Z,2.88
2022-08-25T13:38:27.932Z,3.00
2022-08-25T13:40:36.501Z,3.00
2022-08-25T13:42:42.808Z,3.17
2022-08-25T13:44:52.012Z,2.78
2022-08-25T13:47:18.423Z,2.88
2022-08-25T13:49:27.963Z,3.38
2022-08-25T13:51:31.900Z,2.70
2022-08-25T13:53:34.727Z,2.97
2022-08-25T13:55:51.106Z,2.90
2022-08-25T13:57:55.138Z,2.97
2022-08-25T14:00:03.814Z,2.80
2022-08-25T14:02:07.628Z,2.97
2022-08-25T14:04:32.517Z,2.53
2022-08-25T14:06:35.299Z,2.72
2022-08-25T14:08:41.525Z,2.80
2022-08-25T14:10:45.884Z,2.63
2022-08-25T14:12:49.707Z,2.65
2022-08-25T14:14:59.738Z,2.50
2022-08-25T14:17:12.124Z,2.78
2022-08-25T14:19:25.354Z,2.88
2022-08-25T14:21:32.035Z,2.47
2022-08-25T14:23:39.199Z,2.10
2022-08-25T14:25:42.471Z,2.72
2022-08-25T14:28:06.485Z,2.58
2022-08-25T14:30:10.642Z,2.47
2022-08-25T14:32:14.868Z,2.65
2022-08-25T14:34:20.395Z,2.60
2022-08-25T14:36:23.345Z,2.67
2022-08-25T14:38:27.375Z,2.55
2022-08-25T14:40:34.200Z,2.55
2022-08-25T14:42:37.075Z,2.78
2022-08-25T14:44:40.392Z,2.58
2022-08-25T14:46:46.861Z,2.45
2022-08-25T14:48:55.501Z,2.58
2022-08-25T14:51:00.492Z,2.67
2022-08-25T14:53:04.205Z,2.72
2022-08-25T14:55:10.138Z,2.00
2022-08-25T14:57:13.157Z,2.28
2022-08-25T14:59:15.955Z,2.67
2022-08-25T15:01:29.629Z,2.30
2022-08-25T15:03:35.100Z,2.35
2022-08-25T15:05:37.933Z,2.55
2022-08-25T15:07:58.239Z,2.65
2022-08-25T15:10:01.349Z,2.30
2022-08-25T15:12:05.542Z,2.10
2022-08-25T15:14:10.747Z,2.50
2022-08-25T15:16:16.762Z,1.90
2022-08-25T15:18:24.094Z,2.28
2022-08-25T15:20:26.671Z,2.30
2022-08-25T15:22:29.237Z,2.33
2022-08-25T15:24:37.695Z,2.05
2022-08-25T15:26:44.706Z,2.40
2022-08-25T15:28:51.205Z,2.63
2022-08-25T15:30:53.830Z,2.38
2022-08-25T15:32:56.412Z,2.15
2022-08-25T15:34:59.948Z,2.42
2022-08-25T15:37:08.819Z,2.30
2022-08-25T15:39:12.215Z,2.40
2022-08-25T15:41:15.410Z,2.30
2022-08-25T15:43:18.119Z,2.33
2022-08-25T15:45:22.046Z,2.40
2022-08-25T15:47:27.659Z,2.38
2022-08-25T15:49:33.137Z,2.53
2022-08-25T15:51:36.230Z,2.80
2022-08-25T15:53:39.514Z,2.35
2022-08-25T15:55:42.788Z,2.60
2022-08-25T15:57:47.382Z,2.75
2022-08-25T15:59:53.311Z,2.33
2022-08-25T16:02:00.869Z,2.97
2022-08-25T16:04:03.898Z,2.60
2022-08-25T16:06:08.421Z,2.40
2022-08-25T16:08:19.391Z,2.80
2022-08-25T16:10:22.483Z,2.47
2022-08-25T16:12:25.749Z,2.55
2022-08-25T16:14:30.620Z,2.85
2022-08-25T16:16:33.790Z,3.17
2022-08-25T16:18:38.344Z,2.92
2022-08-25T16:20:44.656Z,3.00
2022-08-25T16:22:47.653Z,3.22
2022-08-25T16:24:50.408Z,2.97
2022-08-25T16:26:56.035Z,2.90
2022-08-25T16:28:59.447Z,3.08
2022-08-25T16:31:02.758Z,2.97
2022-08-25T16:33:06.341Z,2.92
2022-08-25T16:35:13.001Z,3.10
2022-08-25T16:37:15.664Z,3.10
2022-08-25T16:39:18.287Z,2.90
2022-08-25T16:41:22.953Z,3.38
2022-08-25T16:43:25.537Z,3.38
2022-08-25T16:45:28.367Z,3.30
2022-08-25T16:47:37.742Z,3.20
2022-08-25T16:49:41.256Z,3.25
2022-08-25T16:51:45.201Z,3.05
2022-08-25T16:54:08.452Z,3.00
2022-08-25T16:56:11.589Z,3.27
2022-08-25T16:58:14.301Z,2.70
2022-08-25T17:00:21.742Z,3.40
2022-08-25T17:02:24.353Z,3.00
2022-08-25T17:04:32.207Z,3.22
2022-08-25T17:06:37.784Z,3.15
2022-08-25T17:08:42.046Z,2.65
2022-08-25T17:10:46.416Z,3.00
2022-08-25T17:12:49.368Z,3.10
2022-08-25T17:14:52.452Z,3.35
2022-08-25T17:16:55.533Z,3.10
2022-08-25T17:19:03.908Z,3.42
2022-08-25T17:21:09.597Z,3.15
2022-08-25T17:23:13.924Z,2.85
2022-08-25T17:25:18.432Z,3.45
2022-08-25T17:27:23.339Z,2.85
2022-08-25T17:29:26.205Z,3.35
2022-08-25T17:31:30.746Z,3.10
2022-08-25T17:33:33.810Z,3.03
2022-08-25T17:35:39.886Z,3.42
2022-08-25T17:37:42.537Z,3.03
2022-08-25T17:39:45.143Z,4.15
2022-08-25T17:41:49.763Z,3.40
2022-08-25T17:43:52.595Z,3.40
2022-08-25T17:45:57.038Z,3.20
2022-08-25T17:48:00.163Z,3.40
2022-08-25T17:50:03.073Z,3.90
2022-08-25T17:52:06.543Z,3.45
2022-08-25T17:54:09.151Z,3.55
2022-08-25T17:56:14.619Z,3.35
2022-08-25T17:58:18.554Z,3.90
2022-08-25T18:00:22.728Z,3.65
2022-08-25T18:02:26.628Z,4.38
2022-08-25T18:04:31.022Z,4.35
2022-08-25T18:06:33.627Z,4.18
2022-08-25T18:08:36.285Z,3.70
2022-08-25T18:10:40.659Z,3.42
2022-08-25T18:12:44.084Z,3.33
2022-08-25T18:14:49.323Z,3.83
2022-08-25T18:16:52.654Z,4.10
2022-08-25T18:18:57.181Z,3.90
2022-08-25T18:20:59.830Z,4.68
2022-08-25T18:23:02.472Z,4.50
2022-08-25T18:25:08.741Z,4.25
2022-08-25T18:27:13.567Z,4.43
2022-08-25T18:29:16.767Z,4.30
2022-08-25T18:31:21.506Z,3.72
2022-08-25T18:33:24.332Z,3.83
2022-08-25T18:35:27.101Z,4.85
2022-08-25T18:37:47.415Z,4.47
2022-08-25T18:40:08.919Z,4.03
2022-08-25T18:42:14.116Z,3.80
2022-08-25T18:44:17.027Z,4.97
2022-08-25T18:46:22.589Z,4.65
2022-08-25T18:48:26.706Z,4.45
2022-08-25T18:50:36.594Z,3.88
2022-08-25T18:52:39.208Z,4.35
2022-08-25T18:54:41.898Z,4.40
2022-08-25T18:56:44.625Z,4.63
2022-08-25T18:58:47.675Z,4.22
2022-08-25T19:00:50.400Z,4.57
2022-08-25T19:02:57.520Z,5.10
2022-08-25T19:05:04.757Z,4.93
2022-08-25T19:07:12.095Z,4.45
2022-08-25T19:09:15.121Z,5.40
2022-08-25T19:11:22.229Z,5.10
2022-08-25T19:13:25.390Z,5.47
2022-08-25T19:15:28.719Z,5.45
2022-08-25T19:17:37.478Z,5.25
2022-08-25T19:19:41.959Z,6.45
2022-08-25T19:21:45.112Z,6.15
2022-08-25T19:23:51.347Z,6.00
2022-08-25T19:25:54.956Z,5.72
2022-08-25T19:28:00.510Z,5.88
2022-08-25T19:30:05.772Z,6.30
2022-08-25T19:32:08.892Z,6.00
2022-08-25T19:34:19.200Z,5.75
2022-08-25T19:36:27.997Z,5.07
2022-08-25T19:38:34.073Z,5.32
2022-08-25T19:40:38.764Z,5.20
2022-08-25T19:42:41.529Z,5.40
2022-08-25T19:44:44.140Z,5.45
2022-08-25T19:46:47.497Z,5.35
2022-08-25T19:48:53.339Z,5.80
2022-08-25T19:50:56.319Z,5.60
2022-08-25T19:53:00.682Z,5.85
2022-08-25T19:55:04.520Z,5.45
2022-08-25T19:57:11.052Z,5.45
2022-08-25T19:59:17.812Z,5.43
2022-08-25T20:01:20.549Z,5.60
2022-08-25T20:03:23.293Z,5.78
2022-08-25T20:05:25.897Z,5.63
2022-08-25T20:07:31.177Z,6.13
2022-08-25T20:09:38.960Z,5.93
2022-08-25T20:11:43.088Z,5.28
2022-08-25T20:13:45.674Z,6.10
2022-08-25T20:15:51.689Z,6.00
2022-08-25T20:18:00.641Z,6.70
2022-08-25T20:20:09.319Z,5.78
2022-08-25T20:22:17.404Z,6.00
2022-08-25T20:24:38.342Z,5.53
2022-08-25T20:26:43.186Z,5.82
2022-08-25T20:28:45.829Z,5.45
2022-08-25T20:30:48.468Z,6.05
2022-08-25T20:32:52.448Z,5.28
2022-08-25T20:34:55.824Z,6.10
2022-08-25T20:36:58.818Z,6.15
2022-08-25T20:39:01.493Z,5.95
2022-08-25T20:41:04.118Z,6.53
2022-08-25T20:43:11.997Z,6.10
2022-08-25T20:45:16.937Z,6.43
2022-08-25T20:47:20.945Z,6.10
2022-08-25T20:49:26.754Z,6.40
2022-08-25T20:51:29.571Z,6.15
2022-08-25T20:53:34.827Z,6.00
2022-08-25T20:55:38.310Z,6.70
2022-08-25T20:57:45.116Z,6.20
2022-08-25T20:59:49.348Z,6.45
2022-08-25T21:01:52.654Z,5.93
2022-08-25T21:03:55.317Z,5.38
2022-08-25T21:05:57.892Z,6.00
2022-08-25T21:08:01.250Z,5.35
2022-08-25T21:10:07.204Z,5.15
2022-08-25T21:12:13.868Z,6.13
2022-08-25T21:14:17.483Z,5.72
2022-08-25T21:16:23.780Z,5.55
2022-08-25T21:18:31.442Z,6.00
2022-08-25T21:20:35.783Z,5.93
2022-08-25T21:22:39.205Z,6.15
2022-08-25T21:24:41.791Z,6.35
2022-08-25T21:26:49.671Z,5.65
2022-08-25T21:28:53.443Z,6.13
2022-08-25T21:30:56.568Z,5.95
2022-08-25T21:33:00.543Z,6.15
2022-08-25T21:35:03.571Z,6.10
2022-08-25T21:37:11.651Z,6.50
2022-08-25T21:39:15.437Z,5.88
2022-08-25T21:41:20.994Z,6.38
2022-08-25T21:43:23.632Z,6.03
2022-08-25T21:45:26.261Z,6.22
2022-08-25T21:47:42.112Z,6.25
2022-08-25T21:49:46.075Z,5.97
2022-08-25T21:51:59.381Z,6.10
2022-08-25T21:54:11.838Z,6.40
2022-08-25T21:56:17.156Z,6.50
2022-08-25T21:58:22.522Z,6.15
2022-08-25T22:00:25.994Z,6.00
2022-08-25T22:02:28.603Z,6.30
2022-08-25T22:04:32.407Z,6.10
2022-08-25T22:06:37.082Z,6.22
2022-08-25T22:08:41.215Z,6.05
2022-08-25T22:10:44.636Z,6.13
2022-08-25T22:12:48.526Z,6.82
2022-08-25T22:14:51.305Z,6.57
2022-08-25T22:16:54.087Z,6.07
2022-08-25T22:18:57.101Z,5.75
2022-08-25T22:21:00.755Z,5.35
2022-08-25T22:23:20.111Z,5.93
2022-08-25T22:25:23.958Z,5.53
2022-08-25T22:27:28.513Z,5.80
2022-08-25T22:29:32.774Z,5.32
2022-08-25T22:31:35.895Z,5.63
2022-08-25T22:33:40.532Z,6.20
2022-08-25T22:35:44.384Z,5.65
2022-08-25T22:37:47.617Z,6.00
2022-08-25T22:39:51.585Z,5.72
2022-08-25T22:41:55.494Z,5.90
2022-08-25T22:43:58.875Z,6.55
2022-08-25T22:46:02.812Z,6.22
2022-08-25T22:48:07.342Z,5.80
2022-08-25T22:50:10.884Z,5.68
2022-08-25T22:52:13.607Z,6.20
2022-08-25T22:54:16.217Z,5.75
2022-08-25T22:56:29.614Z,4.82
2022-08-25T22:58:32.607Z,5.30
2022-08-25T23:00:39.896Z,5.65
2022-08-25T23:02:43.499Z,5.47
2022-08-25T23:04:46.147Z,5.45
2022-08-25T23:06:49.173Z,5.82
2022-08-25T23:08:53.699Z,5.47
2022-08-25T23:10:57.197Z,5.80
2022-08-25T23:13:01.935Z,5.22
2022-08-25T23:15:14.110Z,6.03
2022-08-25T23:17:16.792Z,5.35
2022-08-25T23:19:19.860Z,5.82
2022-08-25T23:21:40.978Z,5.18
2022-08-25T23:23:45.009Z,5.68
2022-08-25T23:25:47.837Z,5.28
2022-08-25T23:27:50.468Z,5.60
2022-08-25T23:29:55.633Z,5.50
2022-08-25T23:31:59.868Z,6.32
2022-08-25T23:34:02.875Z,5.80
2022-08-25T23:36:10.559Z,5.55
2022-08-25T23:38:13.782Z,6.05
2022-08-25T23:40:19.128Z,5.30
2022-08-25T23:42:22.182Z,6.10
2022-08-25T23:44:25.687Z,5.85
2022-08-25T23:46:30.026Z,6.07
2022-08-25T23:48:33.494Z,6.70
2022-08-25T23:50:40.842Z,6.25
2022-08-25T23:52:43.635Z,5.80
2022-08-25T23:54:47.033Z,6.07
2022-08-25T23:56:51.693Z,6.00
2022-08-25T23:58:55.129Z,5.72
